createdAt,value
2019-03-25T00:39:32.177Z,1013.25
2019-03-25T00:40:31.870Z,1013.19
2019-03-25T00:41:31.859Z,1013.13
2019-03-25T00:42:31.854Z,1013.11
2019-03-25T00:43:31.843Z,1013.08
2019-03-25T00:45:31.828Z,1013.11
2019-03-25T00:46:31.817Z,1013.08
2019-03-25T00:47:31.811Z,1013.09
2019-03-25T00:48:31.799Z,1013.05
2019-03-25T00:49:31.995Z,1013.03
2019-03-25T00:51:31.774Z,1012.98
2019-03-25T00:52:31.767Z,1012.98
2019-03-25T00:53:34.380Z,1012.93
2019-03-25T01:00:23.959Z,1012.75
2019-03-25T01:01:23.954Z,1012.78
2019-03-25T01:02:23.941Z,1012.78
2019-03-25T01:03:23.935Z,1012.76
2019-03-25T01:04:23.924Z,1012.72
2019-03-25T01:05:23.922Z,1012.71
2019-03-25T01:06:23.922Z,1012.72
2019-03-25T01:07:23.901Z,1012.70
2019-03-25T01:08:23.891Z,1012.67
2019-03-25T01:09:23.884Z,1012.68
2019-03-25T01:10:23.874Z,1012.64
2019-03-25T01:11:24.116Z,1012.63
2019-03-25T01:12:23.856Z,1012.60
2019-03-25T01:13:23.850Z,1012.58
2019-03-25T01:14:23.839Z,1012.59
2019-03-25T01:15:23.834Z,1012.66
2019-03-25T01:16:23.823Z,1012.63
2019-03-25T01:17:23.816Z,1012.57
2019-03-25T01:18:23.805Z,1012.57
2019-03-25T01:19:23.799Z,1012.57
2019-03-25T01:20:23.868Z,1012.56
2019-03-25T01:21:24.018Z,1012.49
2019-03-25T01:22:26.393Z,1012.52
2019-03-25T01:23:23.767Z,1012.45
2019-03-25T01:24:23.755Z,1012.45
2019-03-25T01:25:23.749Z,1012.39
2019-03-25T01:26:23.738Z,1012.45
2019-03-25T01:27:23.732Z,1012.43
2019-03-25T01:28:23.722Z,1012.29
2019-03-25T01:29:23.718Z,1012.34
2019-03-25T01:30:23.707Z,1012.34
2019-03-25T01:31:23.699Z,1012.27
2019-03-25T01:32:23.687Z,1012.27
2019-03-25T01:33:23.686Z,1012.23
2019-03-25T01:34:23.669Z,1012.23
2019-03-25T01:35:23.665Z,1012.18
2019-03-25T01:36:23.667Z,1012.16
2019-03-25T01:38:23.639Z,1012.18
2019-03-25T01:39:23.632Z,1012.16
2019-03-25T01:40:23.622Z,1012.16
2019-03-25T01:41:23.610Z,1012.16
2019-03-25T01:42:23.612Z,1012.20
2019-03-25T01:43:23.610Z,1012.18
2019-03-25T01:44:23.587Z,1012.15
2019-03-25T01:45:23.877Z,1012.17
2019-03-25T01:46:23.570Z,1012.13
2019-03-25T01:47:23.561Z,1012.11
2019-03-25T01:49:23.545Z,1012.08
2019-03-25T01:50:23.534Z,1012.08
2019-03-25T01:51:23.529Z,1012.05
2019-03-25T01:53:23.510Z,1012.04
2019-03-25T01:54:23.503Z,1011.98
2019-03-25T01:55:23.493Z,1011.98
2019-03-25T01:56:23.487Z,1011.94
2019-03-25T01:57:23.478Z,1011.94
2019-03-25T01:58:23.470Z,1011.97
2019-03-25T01:59:23.460Z,1011.89
2019-03-25T02:00:23.453Z,1011.83
2019-03-25T02:01:23.443Z,1011.83
2019-03-25T02:02:23.439Z,1011.85
2019-03-25T02:03:23.426Z,1011.86
2019-03-25T02:04:23.421Z,1011.83
2019-03-25T02:05:23.413Z,1011.83
2019-03-25T02:06:23.407Z,1011.80
2019-03-25T02:07:23.393Z,1011.76
2019-03-25T02:08:23.396Z,1011.73
2019-03-25T02:09:23.380Z,1011.78
2019-03-25T02:10:23.370Z,1011.70
2019-03-25T02:11:23.360Z,1011.69
2019-03-25T02:12:23.358Z,1011.65
2019-03-25T02:13:23.343Z,1011.64
2019-03-25T02:14:23.338Z,1011.58
2019-03-25T02:15:23.629Z,1011.56
2019-03-25T02:16:23.321Z,1011.53
2019-03-25T03:14:38.082Z,1011.56
2019-03-25T03:15:37.764Z,1011.50
2019-03-25T03:16:37.755Z,1011.57
2019-03-25T03:17:37.743Z,1011.61
2019-03-25T03:18:37.734Z,1011.69
2019-03-25T03:19:37.728Z,1011.73
2019-03-25T03:20:37.728Z,1011.69
2019-03-25T03:21:37.710Z,1011.78
2019-03-25T03:22:37.696Z,1011.70
2019-03-25T03:23:37.691Z,1011.73
2019-03-25T03:24:37.682Z,1011.74
2019-03-25T03:25:37.672Z,1011.71
2019-03-25T03:26:37.659Z,1011.68
2019-03-25T03:27:37.652Z,1011.69
2019-03-25T03:28:37.641Z,1011.60
2019-03-25T03:29:37.655Z,1011.63
2019-03-25T03:30:37.637Z,1011.64
2019-03-25T03:31:37.617Z,1011.58
2019-03-25T03:32:37.620Z,1011.54
2019-03-25T03:33:37.599Z,1011.56
2019-03-25T03:34:37.597Z,1011.53
2019-03-25T03:35:37.585Z,1011.58
2019-03-25T03:36:37.586Z,1011.56
2019-03-25T03:37:37.565Z,1011.56
2019-03-25T03:38:37.554Z,1011.59
2019-03-25T03:39:37.547Z,1011.62
2019-03-25T03:40:37.545Z,1011.55
2019-03-25T03:41:37.545Z,1011.51
2019-03-25T03:42:37.522Z,1011.51
2019-03-25T03:43:37.513Z,1011.46
2019-03-25T03:44:37.819Z,1011.42
2019-03-25T03:45:37.496Z,1011.36
2019-03-25T03:46:37.487Z,1011.29
2019-03-25T03:47:37.481Z,1011.28
2019-03-25T03:48:37.466Z,1011.36
2019-03-25T03:49:37.464Z,1011.31
2019-03-25T03:50:37.449Z,1011.36
2019-03-25T03:51:37.447Z,1011.35
2019-03-25T03:52:37.433Z,1011.35
2019-03-25T03:53:37.425Z,1011.35
2019-03-25T03:54:37.415Z,1011.31
2019-03-25T03:55:37.411Z,1011.35
2019-03-25T03:56:37.396Z,1011.31
2019-03-25T03:57:37.392Z,1011.32
2019-03-25T03:58:37.385Z,1011.36
2019-03-25T03:59:37.373Z,1011.35
2019-03-25T04:00:37.361Z,1011.34
2019-03-25T04:01:37.355Z,1011.32
2019-03-25T04:02:37.346Z,1011.32
2019-03-25T04:03:37.338Z,1011.36
2019-03-25T04:04:37.327Z,1011.36
2019-03-25T04:05:37.321Z,1011.40
2019-03-25T04:06:37.309Z,1011.38
2019-03-25T04:07:37.306Z,1011.41
2019-03-25T04:08:37.292Z,1011.39
2019-03-25T04:09:37.287Z,1011.41
2019-03-25T04:10:37.274Z,1011.40
2019-03-25T04:11:37.275Z,1011.42
2019-03-25T04:12:37.256Z,1011.51
2019-03-25T04:13:37.251Z,1011.52
2019-03-25T04:14:37.540Z,1011.51
2019-03-25T04:15:37.234Z,1011.50
2019-03-25T04:16:37.222Z,1011.45
2019-03-25T04:17:37.220Z,1011.45
2019-03-25T04:18:37.203Z,1011.49
2019-03-25T04:19:37.198Z,1011.44
2019-03-25T04:20:37.185Z,1011.43
2019-03-25T04:21:37.180Z,1011.38
2019-03-25T04:22:37.167Z,1011.42
2019-03-25T04:23:37.162Z,1011.42
2019-03-25T04:24:37.149Z,1011.42
2019-03-25T04:25:37.245Z,1011.42
2019-03-25T04:26:37.132Z,1011.45
2019-03-25T04:27:37.128Z,1011.40
2019-03-25T04:28:37.113Z,1011.44
2019-03-25T04:29:37.107Z,1011.41
2019-03-25T04:30:37.096Z,1011.36
2019-03-25T04:31:37.088Z,1011.39
2019-03-25T04:32:37.076Z,1011.35
2019-03-25T04:33:37.071Z,1011.41
2019-03-25T04:34:37.073Z,1011.37
2019-03-25T04:35:37.080Z,1011.42
2019-03-25T04:36:37.107Z,1011.38
2019-03-25T04:37:37.039Z,1011.46
2019-03-25T04:38:37.022Z,1011.45
2019-03-25T04:39:37.016Z,1011.42
2019-03-25T04:40:37.004Z,1011.43
2019-03-25T04:41:36.996Z,1011.48
2019-03-25T04:42:36.986Z,1011.43
2019-03-25T04:43:36.979Z,1011.45
2019-03-25T04:44:36.967Z,1011.46
2019-03-25T04:45:36.959Z,1011.49
2019-03-25T04:46:36.949Z,1011.47
2019-03-25T04:47:36.941Z,1011.44
2019-03-25T04:48:36.930Z,1011.44
2019-03-25T04:49:37.222Z,1011.39
2019-03-25T04:50:36.911Z,1011.42
2019-03-25T04:51:36.905Z,1011.45
2019-03-25T04:52:36.893Z,1011.48
2019-03-25T04:53:36.894Z,1011.50
2019-03-25T04:54:36.876Z,1011.49
2019-03-25T04:55:36.867Z,1011.48
2019-03-25T04:56:39.910Z,1011.48
2019-03-25T04:57:36.850Z,1011.52
2019-03-25T04:58:36.841Z,1011.50
2019-03-25T04:59:36.837Z,1011.49
2019-03-25T05:00:36.821Z,1011.50
2019-03-25T05:01:36.810Z,1011.51
2019-03-25T05:02:36.803Z,1011.53
2019-03-25T05:03:36.793Z,1011.54
2019-03-25T05:04:36.780Z,1011.58
2019-03-25T05:05:36.774Z,1011.50
2019-03-25T05:06:36.762Z,1011.55
2019-03-25T05:07:36.755Z,1011.52
2019-03-25T05:08:36.747Z,1011.53
2019-03-25T05:09:36.735Z,1011.54
2019-03-25T05:10:36.723Z,1011.50
2019-03-25T05:11:36.716Z,1011.46
2019-03-25T05:12:36.704Z,1011.46
2019-03-25T05:13:36.697Z,1011.49
2019-03-25T05:14:36.687Z,1011.45
2019-03-25T05:15:36.679Z,1011.51
2019-03-25T05:16:36.668Z,1011.44
2019-03-25T05:17:36.660Z,1011.46
2019-03-25T05:18:36.648Z,1011.46
2019-03-25T05:19:36.641Z,1011.50
2019-03-25T07:39:01.828Z,1011.02
2019-03-25T07:40:01.862Z,1011.01
2019-03-25T07:41:01.800Z,1011.05
2019-03-25T07:42:01.793Z,1011.23
2019-03-25T07:43:01.781Z,1011.21
2019-03-25T07:44:01.774Z,1011.45
2019-03-25T07:45:01.765Z,1011.31
2019-03-25T07:46:01.760Z,1011.31
2019-03-25T07:47:01.744Z,1011.19
2019-03-25T07:48:04.078Z,1011.23
2019-03-25T07:49:01.728Z,1011.37
2019-03-25T07:50:01.724Z,1011.41
2019-03-25T07:51:01.709Z,1011.36
2019-03-25T07:52:01.702Z,1011.42
2019-03-25T07:53:01.692Z,1011.39
2019-03-25T08:05:43.783Z,1011.35
2019-03-25T08:06:43.757Z,1011.29
2019-03-25T08:07:43.745Z,1011.32
2019-03-25T08:12:52.683Z,1011.48
2019-03-25T08:13:52.677Z,1011.42
2019-03-25T08:14:52.690Z,1011.47
2019-03-25T08:15:52.677Z,1011.59
2019-03-25T08:16:52.651Z,1011.46
2019-03-25T08:17:52.631Z,1011.51
2019-03-25T08:18:52.618Z,1011.51
2019-03-25T08:19:52.612Z,1011.58
2019-03-25T08:20:52.650Z,1011.57
2019-03-25T08:21:52.594Z,1011.67
2019-03-25T08:22:52.585Z,1011.64
2019-03-25T08:23:52.825Z,1011.61
2019-03-25T08:24:52.565Z,1011.62
2019-03-25T08:25:52.557Z,1011.58
2019-03-25T08:26:52.547Z,1011.64
2019-03-25T08:27:59.994Z,1011.64
2019-03-25T08:28:52.530Z,1011.61
2019-03-25T08:29:52.523Z,1011.56
2019-03-25T08:30:52.509Z,1011.55
2019-03-25T08:31:52.502Z,1011.50
2019-03-25T08:32:52.493Z,1011.54
2019-03-25T08:33:52.485Z,1011.53
2019-03-25T08:34:52.481Z,1011.51
2019-03-25T08:35:52.467Z,1011.56
2019-03-25T08:36:52.458Z,1011.58
2019-03-25T08:37:52.450Z,1011.55
2019-03-25T08:38:52.441Z,1011.54
2019-03-25T08:39:52.433Z,1011.53
2019-03-25T08:40:52.425Z,1011.63
2019-03-25T08:41:52.418Z,1011.60
2019-03-25T08:42:52.406Z,1011.57
2019-03-25T08:43:52.399Z,1011.53
2019-03-25T08:44:52.389Z,1011.57
2019-03-25T08:45:52.383Z,1011.58
2019-03-25T08:46:52.372Z,1011.55
2019-03-25T08:47:52.366Z,1011.58
2019-03-25T08:48:52.361Z,1011.56
2019-03-25T08:49:52.351Z,1011.52
2019-03-25T08:50:52.340Z,1011.53
2019-03-25T08:51:52.334Z,1011.59
2019-03-25T08:52:52.325Z,1011.59
2019-03-25T08:53:52.320Z,1011.60
2019-03-25T08:54:52.612Z,1011.52
2019-03-25T08:55:52.304Z,1011.59
2019-03-25T08:56:52.295Z,1011.63
2019-03-25T08:57:52.299Z,1011.64
2019-03-25T08:58:52.278Z,1011.80
2019-03-25T08:59:52.273Z,1011.55
2019-03-25T09:00:52.264Z,1011.74
2019-03-25T09:01:52.263Z,1011.66
2019-03-25T09:02:54.870Z,1011.71
2019-03-25T09:03:52.243Z,1011.73
2019-03-25T09:04:52.234Z,1011.70
2019-03-25T09:05:52.230Z,1011.75
2019-03-25T09:06:52.220Z,1011.71
2019-03-25T09:07:52.216Z,1011.74
2019-03-25T09:08:52.205Z,1011.72
2019-03-25T09:12:17.127Z,1011.66
2019-03-25T09:13:17.128Z,1011.63
2019-03-25T09:14:17.126Z,1011.58
2019-03-25T09:15:17.105Z,1011.61
2019-03-25T09:17:17.090Z,1011.55
2019-03-25T09:18:17.086Z,1011.52
2019-03-25T09:19:17.079Z,1011.57
2019-03-25T09:22:17.060Z,1011.59
2019-03-25T09:32:35.819Z,1011.58
2019-03-25T09:33:35.839Z,1011.53
2019-03-25T09:34:35.806Z,1011.52
2019-03-25T09:35:35.809Z,1011.84
2019-03-25T09:36:35.793Z,1012.11
2019-03-25T09:37:35.788Z,1012.03
2019-03-25T09:38:35.783Z,1012.01
2019-03-25T09:39:35.781Z,1012.10
2019-03-25T09:40:35.768Z,1012.13
2019-03-25T10:35:49.004Z,1012.72
2019-03-25T10:37:48.690Z,1012.72
2019-03-25T10:38:48.681Z,1012.80
2019-03-25T10:39:48.677Z,1012.69
2019-03-25T10:40:48.668Z,1012.64
2019-03-25T10:41:48.664Z,1012.67
2019-03-25T10:42:48.658Z,1012.70
2019-03-25T10:44:48.647Z,1012.72
2019-03-25T10:45:48.637Z,1012.75
2019-03-25T10:47:48.629Z,1012.68
2019-03-25T10:48:48.620Z,1012.73
2019-03-25T10:49:48.622Z,1012.78
2019-03-25T10:50:48.609Z,1012.80
2019-03-25T10:51:48.607Z,1012.73
2019-03-25T10:52:48.600Z,1012.85
2019-03-25T10:53:48.595Z,1012.81
2019-03-25T10:54:48.665Z,1012.79
2019-03-25T11:01:43.838Z,1012.69
